Terminal Aerodrome Forecast
Issued by NWS Buffalo, NY

Home | Current Version | Previous Version | Text Only | Print | Product List | Glossary On
Versions: 1 2 3 4 5 6 7 8 9 10 11 12 13 14 15 16 17 18 19 20 21 22 23 24 25 26
000
FTUS41 KBUF 181728
TAFROC
TAF
KROC 181728Z 1818/1918 20009KT P6SM FEW250
     FM190400 19009KT P6SM SKC WS020/24040KT
     FM191300 21012G22KT P6SM SKC
     FM191700 23015G28KT P6SM FEW250=

USA.gov is the U.S. government's official web portal to all federal, state and local government web resources and services.